sensor_id;sensor_type;location;lat;lon;timestamp;P1;durP1;ratioP1;P2;durP2;ratioP2
20320;SDS011;10318;47.674;9.052;2023-01-23T00:00:30;20.40;;;14.32;;
20320;SDS011;10318;47.674;9.052;2023-01-23T00:02:57;18.67;;;13.55;;
20320;SDS011;10318;47.674;9.052;2023-01-23T00:05:24;18.90;;;13.05;;
20320;SDS011;10318;47.674;9.052;2023-01-23T00:07:51;18.17;;;12.77;;
20320;SDS011;10318;47.674;9.052;2023-01-23T00:10:18;19.73;;;13.27;;
20320;SDS011;10318;47.674;9.052;2023-01-23T00:12:45;18.88;;;13.27;;
20320;SDS011;10318;47.674;9.052;2023-01-23T00:15:14;19.70;;;13.45;;
20320;SDS011;10318;47.674;9.052;2023-01-23T00:17:41;18.38;;;13.25;;
20320;SDS011;10318;47.674;9.052;2023-01-23T00:20:08;19.52;;;13.77;;
20320;SDS011;10318;47.674;9.052;2023-01-23T00:22:35;20.25;;;13.73;;
20320;SDS011;10318;47.674;9.052;2023-01-23T00:25:02;18.75;;;13.13;;
20320;SDS011;10318;47.674;9.052;2023-01-23T00:27:29;20.02;;;14.02;;
20320;SDS011;10318;47.674;9.052;2023-01-23T00:29:56;16.73;;;12.15;;
20320;SDS011;10318;47.674;9.052;2023-01-23T00:32:23;17.05;;;11.93;;
20320;SDS011;10318;47.674;9.052;2023-01-23T00:34:50;17.55;;;12.43;;
20320;SDS011;10318;47.674;9.052;2023-01-23T00:37:16;19.27;;;13.18;;
20320;SDS011;10318;47.674;9.052;2023-01-23T00:39:43;21.52;;;13.35;;
20320;SDS011;10318;47.674;9.052;2023-01-23T00:42:11;19.10;;;12.60;;
20320;SDS011;10318;47.674;9.052;2023-01-23T00:44:37;19.33;;;12.45;;
20320;SDS011;10318;47.674;9.052;2023-01-23T00:47:04;19.42;;;12.52;;
20320;SDS011;10318;47.674;9.052;2023-01-23T00:49:31;18.92;;;12.88;;
20320;SDS011;10318;47.674;9.052;2023-01-23T00:51:58;18.35;;;13.10;;
20320;SDS011;10318;47.674;9.052;2023-01-23T00:54:26;17.40;;;11.95;;
20320;SDS011;10318;47.674;9.052;2023-01-23T00:56:53;20.65;;;13.82;;
20320;SDS011;10318;47.674;9.052;2023-01-23T00:59:21;20.33;;;14.27;;
20320;SDS011;10318;47.674;9.052;2023-01-23T01:01:47;18.77;;;13.50;;
20320;SDS011;10318;47.674;9.052;2023-01-23T01:04:14;19.75;;;12.82;;
20320;SDS011;10318;47.674;9.052;2023-01-23T01:06:41;20.80;;;13.75;;
20320;SDS011;10318;47.674;9.052;2023-01-23T01:09:08;18.73;;;12.25;;
20320;SDS011;10318;47.674;9.052;2023-01-23T01:11:36;20.60;;;13.10;;
20320;SDS011;10318;47.674;9.052;2023-01-23T01:14:03;19.02;;;12.73;;
20320;SDS011;10318;47.674;9.052;2023-01-23T01:16:30;18.50;;;12.25;;
20320;SDS011;10318;47.674;9.052;2023-01-23T01:18:57;20.20;;;13.20;;
20320;SDS011;10318;47.674;9.052;2023-01-23T01:21:24;20.63;;;13.57;;
20320;SDS011;10318;47.674;9.052;2023-01-23T01:23:50;19.83;;;12.68;;
20320;SDS011;10318;47.674;9.052;2023-01-23T01:26:18;21.13;;;13.70;;
20320;SDS011;10318;47.674;9.052;2023-01-23T01:28:44;20.35;;;13.10;;
20320;SDS011;10318;47.674;9.052;2023-01-23T01:31:13;20.63;;;12.88;;
20320;SDS011;10318;47.674;9.052;2023-01-23T01:33:40;18.50;;;12.07;;
20320;SDS011;10318;47.674;9.052;2023-01-23T01:36:11;19.02;;;12.95;;
20320;SDS011;10318;47.674;9.052;2023-01-23T01:38:38;19.30;;;12.38;;
20320;SDS011;10318;47.674;9.052;2023-01-23T01:41:05;17.40;;;11.52;;
20320;SDS011;10318;47.674;9.052;2023-01-23T01:43:33;18.85;;;12.65;;
20320;SDS011;10318;47.674;9.052;2023-01-23T01:51:14;17.60;;;11.40;;
20320;SDS011;10318;47.674;9.052;2023-01-23T01:53:42;19.00;;;12.48;;
20320;SDS011;10318;47.674;9.052;2023-01-23T01:56:12;18.63;;;11.60;;
20320;SDS011;10318;47.674;9.052;2023-01-23T01:58:39;20.25;;;12.40;;
20320;SDS011;10318;47.674;9.052;2023-01-23T02:01:07;16.95;;;11.48;;
20320;SDS011;10318;47.674;9.052;2023-01-23T02:03:34;18.60;;;12.27;;
20320;SDS011;10318;47.674;9.052;2023-01-23T02:06:01;19.10;;;12.85;;
20320;SDS011;10318;47.674;9.052;2023-01-23T02:11:07;18.30;;;12.80;;
20320;SDS011;10318;47.674;9.052;2023-01-23T02:13:34;19.67;;;13.35;;
20320;SDS011;10318;47.674;9.052;2023-01-23T02:16:04;18.25;;;11.95;;
20320;SDS011;10318;47.674;9.052;2023-01-23T02:18:31;20.02;;;12.50;;
20320;SDS011;10318;47.674;9.052;2023-01-23T02:20:59;19.92;;;12.60;;
20320;SDS011;10318;47.674;9.052;2023-01-23T02:26:17;18.05;;;12.68;;
20320;SDS011;10318;47.674;9.052;2023-01-23T02:28:46;17.65;;;12.13;;
20320;SDS011;10318;47.674;9.052;2023-01-23T02:31:18;19.45;;;12.43;;
20320;SDS011;10318;47.674;9.052;2023-01-23T02:33:46;20.15;;;12.82;;
20320;SDS011;10318;47.674;9.052;2023-01-23T02:36:13;17.67;;;11.45;;
20320;SDS011;10318;47.674;9.052;2023-01-23T02:38:49;19.98;;;12.50;;
20320;SDS011;10318;47.674;9.052;2023-01-23T02:41:19;17.90;;;12.10;;
20320;SDS011;10318;47.674;9.052;2023-01-23T02:43:48;18.98;;;12.10;;
20320;SDS011;10318;47.674;9.052;2023-01-23T02:46:16;19.80;;;12.80;;
20320;SDS011;10318;47.674;9.052;2023-01-23T02:48:44;19.17;;;11.27;;
20320;SDS011;10318;47.674;9.052;2023-01-23T02:51:11;18.25;;;11.43;;
20320;SDS011;10318;47.674;9.052;2023-01-23T02:53:37;18.80;;;12.70;;
20320;SDS011;10318;47.674;9.052;2023-01-23T02:56:04;17.20;;;11.35;;
20320;SDS011;10318;47.674;9.052;2023-01-23T02:58:31;16.05;;;10.52;;
20320;SDS011;10318;47.674;9.052;2023-01-23T03:01:17;16.05;;;10.55;;
20320;SDS011;10318;47.674;9.052;2023-01-23T03:03:44;17.40;;;11.25;;
20320;SDS011;10318;47.674;9.052;2023-01-23T03:06:11;21.42;;;12.15;;
20320;SDS011;10318;47.674;9.052;2023-01-23T03:08:37;14.75;;;10.57;;
20320;SDS011;10318;47.674;9.052;2023-01-23T03:11:14;14.82;;;9.75;;
20320;SDS011;10318;47.674;9.052;2023-01-23T03:13:41;18.38;;;11.63;;
20320;SDS011;10318;47.674;9.052;2023-01-23T03:16:08;16.65;;;10.65;;
20320;SDS011;10318;47.674;9.052;2023-01-23T03:18:36;15.32;;;10.05;;
20320;SDS011;10318;47.674;9.052;2023-01-23T03:21:19;15.32;;;9.65;;
20320;SDS011;10318;47.674;9.052;2023-01-23T03:23:46;16.83;;;10.00;;
20320;SDS011;10318;47.674;9.052;2023-01-23T03:26:14;13.95;;;9.93;;
20320;SDS011;10318;47.674;9.052;2023-01-23T03:28:41;15.88;;;10.35;;
20320;SDS011;10318;47.674;9.052;2023-01-23T03:31:26;15.27;;;9.63;;
20320;SDS011;10318;47.674;9.052;2023-01-23T03:33:53;14.65;;;9.90;;
20320;SDS011;10318;47.674;9.052;2023-01-23T03:36:21;15.13;;;10.50;;
20320;SDS011;10318;47.674;9.052;2023-01-23T03:38:47;16.23;;;10.60;;
20320;SDS011;10318;47.674;9.052;2023-01-23T03:41:34;14.45;;;9.45;;
20320;SDS011;10318;47.674;9.052;2023-01-23T03:44:02;15.00;;;9.93;;
20320;SDS011;10318;47.674;9.052;2023-01-23T03:46:29;14.32;;;9.63;;
20320;SDS011;10318;47.674;9.052;2023-01-23T03:48:56;17.25;;;10.85;;
20320;SDS011;10318;47.674;9.052;2023-01-23T03:51:22;17.40;;;11.05;;
20320;SDS011;10318;47.674;9.052;2023-01-23T03:53:50;16.80;;;10.82;;
20320;SDS011;10318;47.674;9.052;2023-01-23T03:56:16;18.55;;;11.80;;
20320;SDS011;10318;47.674;9.052;2023-01-23T03:58:43;18.90;;;12.70;;
20320;SDS011;10318;47.674;9.052;2023-01-23T04:01:11;18.38;;;12.10;;
20320;SDS011;10318;47.674;9.052;2023-01-23T04:03:40;21.75;;;12.80;;
20320;SDS011;10318;47.674;9.052;2023-01-23T04:06:07;19.80;;;12.30;;
20320;SDS011;10318;47.674;9.052;2023-01-23T04:08:34;17.83;;;11.13;;
20320;SDS011;10318;47.674;9.052;2023-01-23T04:11:05;19.00;;;12.43;;
20320;SDS011;10318;47.674;9.052;2023-01-23T04:13:32;19.17;;;12.52;;
20320;SDS011;10318;47.674;9.052;2023-01-23T04:15:59;19.25;;;12.02;;
20320;SDS011;10318;47.674;9.052;2023-01-23T04:18:26;17.92;;;11.63;;
20320;SDS011;10318;47.674;9.052;2023-01-23T04:20:53;17.98;;;11.55;;
20320;SDS011;10318;47.674;9.052;2023-01-23T04:23:20;16.10;;;11.07;;
20320;SDS011;10318;47.674;9.052;2023-01-23T04:25:47;16.58;;;11.00;;
20320;SDS011;10318;47.674;9.052;2023-01-23T04:28:14;15.80;;;10.85;;
20320;SDS011;10318;47.674;9.052;2023-01-23T04:30:42;16.73;;;10.82;;
20320;SDS011;10318;47.674;9.052;2023-01-23T04:33:18;15.95;;;9.70;;
20320;SDS011;10318;47.674;9.052;2023-01-23T04:35:56;16.10;;;10.48;;
20320;SDS011;10318;47.674;9.052;2023-01-23T04:38:26;16.50;;;10.20;;
20320;SDS011;10318;47.674;9.052;2023-01-23T04:40:53;15.52;;;9.40;;
20320;SDS011;10318;47.674;9.052;2023-01-23T04:43:20;15.88;;;10.32;;
20320;SDS011;10318;47.674;9.052;2023-01-23T04:45:50;14.32;;;9.43;;
20320;SDS011;10318;47.674;9.052;2023-01-23T04:48:19;16.08;;;10.63;;
20320;SDS011;10318;47.674;9.052;2023-01-23T04:50:46;16.48;;;10.30;;
20320;SDS011;10318;47.674;9.052;2023-01-23T04:53:14;15.18;;;10.40;;
20320;SDS011;10318;47.674;9.052;2023-01-23T04:55:41;14.25;;;9.18;;
20320;SDS011;10318;47.674;9.052;2023-01-23T04:58:12;14.90;;;9.93;;
20320;SDS011;10318;47.674;9.052;2023-01-23T05:00:39;15.25;;;10.43;;
20320;SDS011;10318;47.674;9.052;2023-01-23T05:03:06;16.42;;;10.35;;
20320;SDS011;10318;47.674;9.052;2023-01-23T05:05:32;14.02;;;9.65;;
20320;SDS011;10318;47.674;9.052;2023-01-23T05:08:00;15.40;;;10.48;;
20320;SDS011;10318;47.674;9.052;2023-01-23T05:10:28;15.48;;;10.70;;
20320;SDS011;10318;47.674;9.052;2023-01-23T05:12:57;16.50;;;11.18;;
20320;SDS011;10318;47.674;9.052;2023-01-23T05:15:24;17.83;;;11.45;;
20320;SDS011;10318;47.674;9.052;2023-01-23T05:17:51;16.58;;;10.30;;
20320;SDS011;10318;47.674;9.052;2023-01-23T05:20:17;16.02;;;10.70;;
20320;SDS011;10318;47.674;9.052;2023-01-23T05:22:46;17.00;;;11.20;;
20320;SDS011;10318;47.674;9.052;2023-01-23T05:25:26;16.10;;;10.35;;
20320;SDS011;10318;47.674;9.052;2023-01-23T05:27:54;15.18;;;10.10;;
20320;SDS011;10318;47.674;9.052;2023-01-23T05:30:22;17.13;;;10.02;;
20320;SDS011;10318;47.674;9.052;2023-01-23T05:32:53;15.75;;;10.45;;
20320;SDS011;10318;47.674;9.052;2023-01-23T05:35:20;19.30;;;12.02;;
20320;SDS011;10318;47.674;9.052;2023-01-23T05:37:50;16.27;;;11.27;;
20320;SDS011;10318;47.674;9.052;2023-01-23T05:40:20;17.38;;;10.85;;
20320;SDS011;10318;47.674;9.052;2023-01-23T05:43:19;16.30;;;10.15;;
20320;SDS011;10318;47.674;9.052;2023-01-23T05:46:05;17.67;;;10.65;;
20320;SDS011;10318;47.674;9.052;2023-01-23T05:48:51;16.77;;;11.02;;
20320;SDS011;10318;47.674;9.052;2023-01-23T05:51:19;14.00;;;9.63;;
20320;SDS011;10318;47.674;9.052;2023-01-23T05:53:46;14.52;;;9.50;;
20320;SDS011;10318;47.674;9.052;2023-01-23T05:56:13;15.82;;;9.70;;
20320;SDS011;10318;47.674;9.052;2023-01-23T05:59:00;13.80;;;8.52;;
20320;SDS011;10318;47.674;9.052;2023-01-23T06:01:39;13.90;;;8.63;;
20320;SDS011;10318;47.674;9.052;2023-01-23T06:04:24;14.32;;;9.18;;
20320;SDS011;10318;47.674;9.052;2023-01-23T06:07:12;13.90;;;8.75;;
20320;SDS011;10318;47.674;9.052;2023-01-23T06:09:39;14.50;;;9.13;;
20320;SDS011;10318;47.674;9.052;2023-01-23T06:12:06;13.52;;;9.15;;
20320;SDS011;10318;47.674;9.052;2023-01-23T06:14:33;14.52;;;9.70;;
20320;SDS011;10318;47.674;9.052;2023-01-23T06:17:00;12.63;;;8.63;;
20320;SDS011;10318;47.674;9.052;2023-01-23T06:19:26;10.35;;;6.10;;
20320;SDS011;10318;47.674;9.052;2023-01-23T06:21:53;14.05;;;8.70;;
20320;SDS011;10318;47.674;9.052;2023-01-23T06:24:20;13.00;;;8.85;;
20320;SDS011;10318;47.674;9.052;2023-01-23T06:26:47;13.65;;;8.38;;
20320;SDS011;10318;47.674;9.052;2023-01-23T06:29:13;14.43;;;9.38;;
20320;SDS011;10318;47.674;9.052;2023-01-23T06:31:40;12.60;;;8.80;;
20320;SDS011;10318;47.674;9.052;2023-01-23T06:34:07;12.23;;;7.57;;
20320;SDS011;10318;47.674;9.052;2023-01-23T06:36:40;13.75;;;8.10;;
20320;SDS011;10318;47.674;9.052;2023-01-23T06:39:07;14.32;;;9.32;;
20320;SDS011;10318;47.674;9.052;2023-01-23T06:41:39;11.07;;;8.07;;
20320;SDS011;10318;47.674;9.052;2023-01-23T06:44:07;13.48;;;8.82;;
20320;SDS011;10318;47.674;9.052;2023-01-23T06:46:34;14.35;;;8.73;;
20320;SDS011;10318;47.674;9.052;2023-01-23T06:49:01;12.40;;;8.45;;
20320;SDS011;10318;47.674;9.052;2023-01-23T06:51:34;13.23;;;8.60;;
20320;SDS011;10318;47.674;9.052;2023-01-23T06:54:01;12.40;;;8.30;;
20320;SDS011;10318;47.674;9.052;2023-01-23T06:56:28;13.43;;;8.07;;
20320;SDS011;10318;47.674;9.052;2023-01-23T06:58:55;13.73;;;8.77;;
20320;SDS011;10318;47.674;9.052;2023-01-23T07:01:26;12.85;;;8.77;;
20320;SDS011;10318;47.674;9.052;2023-01-23T07:04:06;14.38;;;8.73;;
20320;SDS011;10318;47.674;9.052;2023-01-23T07:06:36;15.88;;;10.15;;
20320;SDS011;10318;47.674;9.052;2023-01-23T07:09:02;15.52;;;9.75;;
20320;SDS011;10318;47.674;9.052;2023-01-23T07:11:29;17.27;;;9.73;;
20320;SDS011;10318;47.674;9.052;2023-01-23T07:13:56;14.80;;;9.10;;
20320;SDS011;10318;47.674;9.052;2023-01-23T07:16:25;14.75;;;9.15;;
20320;SDS011;10318;47.674;9.052;2023-01-23T07:18:53;14.00;;;9.00;;
20320;SDS011;10318;47.674;9.052;2023-01-23T07:21:20;13.18;;;8.25;;
20320;SDS011;10318;47.674;9.052;2023-01-23T07:23:46;16.45;;;9.65;;
20320;SDS011;10318;47.674;9.052;2023-01-23T07:26:13;12.68;;;8.38;;
20320;SDS011;10318;47.674;9.052;2023-01-23T07:28:39;13.77;;;8.68;;
20320;SDS011;10318;47.674;9.052;2023-01-23T07:31:06;16.38;;;10.52;;
20320;SDS011;10318;47.674;9.052;2023-01-23T07:33:33;16.70;;;9.80;;
20320;SDS011;10318;47.674;9.052;2023-01-23T07:36:03;14.43;;;9.73;;
20320;SDS011;10318;47.674;9.052;2023-01-23T07:38:29;16.75;;;9.73;;
20320;SDS011;10318;47.674;9.052;2023-01-23T07:40:56;15.00;;;9.95;;
20320;SDS011;10318;47.674;9.052;2023-01-23T07:43:23;14.13;;;9.27;;
20320;SDS011;10318;47.674;9.052;2023-01-23T07:45:50;15.55;;;9.10;;
20320;SDS011;10318;47.674;9.052;2023-01-23T07:48:17;13.25;;;8.52;;
20320;SDS011;10318;47.674;9.052;2023-01-23T07:50:43;18.75;;;10.43;;
20320;SDS011;10318;47.674;9.052;2023-01-23T07:53:10;16.27;;;10.15;;
20320;SDS011;10318;47.674;9.052;2023-01-23T07:55:37;15.27;;;9.35;;
20320;SDS011;10318;47.674;9.052;2023-01-23T07:58:04;15.02;;;9.70;;
20320;SDS011;10318;47.674;9.052;2023-01-23T08:00:30;14.68;;;9.27;;
20320;SDS011;10318;47.674;9.052;2023-01-23T08:02:57;15.93;;;9.73;;
20320;SDS011;10318;47.674;9.052;2023-01-23T08:05:24;16.27;;;10.38;;
20320;SDS011;10318;47.674;9.052;2023-01-23T08:07:51;19.30;;;10.70;;
20320;SDS011;10318;47.674;9.052;2023-01-23T08:10:37;14.73;;;8.68;;
20320;SDS011;10318;47.674;9.052;2023-01-23T08:13:04;15.52;;;8.55;;
20320;SDS011;10318;47.674;9.052;2023-01-23T08:15:31;15.57;;;10.20;;
20320;SDS011;10318;47.674;9.052;2023-01-23T08:17:57;15.95;;;10.02;;
20320;SDS011;10318;47.674;9.052;2023-01-23T08:20:24;14.45;;;9.75;;
20320;SDS011;10318;47.674;9.052;2023-01-23T08:22:51;15.05;;;9.85;;
20320;SDS011;10318;47.674;9.052;2023-01-23T08:25:17;15.13;;;9.35;;
20320;SDS011;10318;47.674;9.052;2023-01-23T08:27:44;17.15;;;10.75;;
20320;SDS011;10318;47.674;9.052;2023-01-23T08:30:11;15.80;;;11.07;;
20320;SDS011;10318;47.674;9.052;2023-01-23T08:32:37;15.02;;;10.27;;
20320;SDS011;10318;47.674;9.052;2023-01-23T08:35:04;17.55;;;10.52;;
20320;SDS011;10318;47.674;9.052;2023-01-23T08:37:31;17.17;;;10.98;;
20320;SDS011;10318;47.674;9.052;2023-01-23T08:39:59;17.25;;;10.50;;
20320;SDS011;10318;47.674;9.052;2023-01-23T08:42:26;17.05;;;10.75;;
20320;SDS011;10318;47.674;9.052;2023-01-23T08:44:53;18.55;;;9.55;;
20320;SDS011;10318;47.674;9.052;2023-01-23T08:47:19;18.17;;;11.20;;
20320;SDS011;10318;47.674;9.052;2023-01-23T08:49:46;18.90;;;11.23;;
20320;SDS011;10318;47.674;9.052;2023-01-23T08:52:13;17.90;;;10.93;;
20320;SDS011;10318;47.674;9.052;2023-01-23T08:54:39;19.95;;;11.30;;
20320;SDS011;10318;47.674;9.052;2023-01-23T08:57:06;18.17;;;11.00;;
20320;SDS011;10318;47.674;9.052;2023-01-23T08:59:32;17.65;;;10.55;;
20320;SDS011;10318;47.674;9.052;2023-01-23T09:01:59;16.88;;;10.32;;
20320;SDS011;10318;47.674;9.052;2023-01-23T09:04:26;19.38;;;11.15;;
20320;SDS011;10318;47.674;9.052;2023-01-23T09:06:52;18.48;;;10.32;;
20320;SDS011;10318;47.674;9.052;2023-01-23T09:09:19;17.05;;;11.25;;
20320;SDS011;10318;47.674;9.052;2023-01-23T09:11:46;17.33;;;9.73;;
20320;SDS011;10318;47.674;9.052;2023-01-23T09:14:12;20.13;;;11.48;;
20320;SDS011;10318;47.674;9.052;2023-01-23T09:16:39;17.73;;;10.18;;
20320;SDS011;10318;47.674;9.052;2023-01-23T09:19:06;17.48;;;9.77;;
20320;SDS011;10318;47.674;9.052;2023-01-23T09:21:35;17.90;;;9.55;;
20320;SDS011;10318;47.674;9.052;2023-01-23T09:24:02;19.92;;;10.77;;
20320;SDS011;10318;47.674;9.052;2023-01-23T09:26:29;18.75;;;11.13;;
20320;SDS011;10318;47.674;9.052;2023-01-23T09:28:55;19.80;;;11.40;;
20320;SDS011;10318;47.674;9.052;2023-01-23T09:31:22;19.35;;;10.65;;
20320;SDS011;10318;47.674;9.052;2023-01-23T09:33:49;20.10;;;11.15;;
20320;SDS011;10318;47.674;9.052;2023-01-23T09:36:15;19.83;;;11.20;;
20320;SDS011;10318;47.674;9.052;2023-01-23T09:38:42;18.08;;;10.95;;
20320;SDS011;10318;47.674;9.052;2023-01-23T09:44:09;19.60;;;11.75;;
20320;SDS011;10318;47.674;9.052;2023-01-23T09:46:47;19.45;;;11.52;;
20320;SDS011;10318;47.674;9.052;2023-01-23T09:49:23;23.70;;;13.18;;
20320;SDS011;10318;47.674;9.052;2023-01-23T09:52:02;18.95;;;11.10;;
20320;SDS011;10318;47.674;9.052;2023-01-23T09:54:33;21.88;;;11.60;;
20320;SDS011;10318;47.674;9.052;2023-01-23T09:57:03;20.02;;;11.30;;
20320;SDS011;10318;47.674;9.052;2023-01-23T10:01:58;19.15;;;11.32;;
20320;SDS011;10318;47.674;9.052;2023-01-23T10:04:24;22.92;;;12.68;;
20320;SDS011;10318;47.674;9.052;2023-01-23T10:07:10;21.80;;;12.18;;
20320;SDS011;10318;47.674;9.052;2023-01-23T10:10:07;21.67;;;12.15;;
20320;SDS011;10318;47.674;9.052;2023-01-23T10:12:38;18.05;;;10.30;;
20320;SDS011;10318;47.674;9.052;2023-01-23T10:17:56;20.60;;;12.05;;
20320;SDS011;10318;47.674;9.052;2023-01-23T10:23:04;19.13;;;9.82;;
20320;SDS011;10318;47.674;9.052;2023-01-23T10:25:37;18.25;;;10.32;;
20320;SDS011;10318;47.674;9.052;2023-01-23T10:30:46;19.15;;;11.23;;
20320;SDS011;10318;47.674;9.052;2023-01-23T10:33:14;21.83;;;11.75;;
20320;SDS011;10318;47.674;9.052;2023-01-23T10:38:30;21.27;;;11.52;;
20320;SDS011;10318;47.674;9.052;2023-01-23T10:40:58;21.63;;;11.80;;
20320;SDS011;10318;47.674;9.052;2023-01-23T10:43:41;17.83;;;10.85;;
20320;SDS011;10318;47.674;9.052;2023-01-23T10:46:18;18.73;;;11.07;;
20320;SDS011;10318;47.674;9.052;2023-01-23T10:48:46;17.20;;;9.73;;
20320;SDS011;10318;47.674;9.052;2023-01-23T10:54:05;18.77;;;11.55;;
20320;SDS011;10318;47.674;9.052;2023-01-23T10:56:44;19.77;;;11.70;;
20320;SDS011;10318;47.674;9.052;2023-01-23T10:59:17;18.08;;;10.10;;
20320;SDS011;10318;47.674;9.052;2023-01-23T11:01:52;19.13;;;11.18;;
20320;SDS011;10318;47.674;9.052;2023-01-23T11:04:24;20.15;;;11.95;;
20320;SDS011;10318;47.674;9.052;2023-01-23T11:07:02;20.52;;;11.88;;
20320;SDS011;10318;47.674;9.052;2023-01-23T11:09:29;19.70;;;10.90;;
20320;SDS011;10318;47.674;9.052;2023-01-23T11:12:02;19.60;;;11.45;;
20320;SDS011;10318;47.674;9.052;2023-01-23T11:14:29;19.00;;;10.43;;
20320;SDS011;10318;47.674;9.052;2023-01-23T11:16:58;16.20;;;10.00;;
20320;SDS011;10318;47.674;9.052;2023-01-23T11:19:25;20.02;;;11.50;;
20320;SDS011;10318;47.674;9.052;2023-01-23T11:24:20;19.60;;;11.50;;
20320;SDS011;10318;47.674;9.052;2023-01-23T11:27:04;20.25;;;11.85;;
20320;SDS011;10318;47.674;9.052;2023-01-23T11:29:41;21.05;;;11.60;;
20320;SDS011;10318;47.674;9.052;2023-01-23T11:32:13;17.73;;;11.63;;
20320;SDS011;10318;47.674;9.052;2023-01-23T11:34:46;15.18;;;9.52;;
20320;SDS011;10318;47.674;9.052;2023-01-23T11:37:20;16.55;;;9.63;;
20320;SDS011;10318;47.674;9.052;2023-01-23T11:40:02;18.70;;;10.85;;
20320;SDS011;10318;47.674;9.052;2023-01-23T11:42:30;20.58;;;11.52;;
20320;SDS011;10318;47.674;9.052;2023-01-23T11:44:57;16.13;;;9.90;;
20320;SDS011;10318;47.674;9.052;2023-01-23T11:47:34;17.98;;;10.45;;
20320;SDS011;10318;47.674;9.052;2023-01-23T11:50:18;19.30;;;11.52;;
20320;SDS011;10318;47.674;9.052;2023-01-23T11:52:52;16.30;;;9.73;;
20320;SDS011;10318;47.674;9.052;2023-01-23T12:00:57;18.02;;;10.88;;
20320;SDS011;10318;47.674;9.052;2023-01-23T12:05:54;17.27;;;10.48;;
20320;SDS011;10318;47.674;9.052;2023-01-23T12:08:58;16.05;;;9.60;;
20320;SDS011;10318;47.674;9.052;2023-01-23T12:11:45;16.60;;;9.18;;
20320;SDS011;10318;47.674;9.052;2023-01-23T12:19:33;17.10;;;9.95;;
20320;SDS011;10318;47.674;9.052;2023-01-23T12:22:08;19.38;;;11.95;;
20320;SDS011;10318;47.674;9.052;2023-01-23T12:24:42;20.70;;;12.10;;
20320;SDS011;10318;47.674;9.052;2023-01-23T12:29:48;19.10;;;11.50;;
20320;SDS011;10318;47.674;9.052;2023-01-23T12:34:54;20.92;;;12.23;;
20320;SDS011;10318;47.674;9.052;2023-01-23T12:37:49;18.92;;;11.10;;
20320;SDS011;10318;47.674;9.052;2023-01-23T12:40:27;14.02;;;7.60;;
20320;SDS011;10318;47.674;9.052;2023-01-23T12:45:27;22.00;;;12.70;;
20320;SDS011;10318;47.674;9.052;2023-01-23T12:53:02;23.00;;;14.70;;
20320;SDS011;10318;47.674;9.052;2023-01-23T12:55:32;23.55;;;13.43;;
20320;SDS011;10318;47.674;9.052;2023-01-23T12:58:00;20.05;;;11.93;;
20320;SDS011;10318;47.674;9.052;2023-01-23T13:00:56;23.23;;;12.50;;
20320;SDS011;10318;47.674;9.052;2023-01-23T13:08:41;22.48;;;13.48;;
20320;SDS011;10318;47.674;9.052;2023-01-23T13:11:39;20.90;;;12.25;;
20320;SDS011;10318;47.674;9.052;2023-01-23T13:14:19;23.60;;;13.80;;
20320;SDS011;10318;47.674;9.052;2023-01-23T13:16:47;23.45;;;14.43;;
20320;SDS011;10318;47.674;9.052;2023-01-23T13:19:22;22.50;;;12.77;;
20320;SDS011;10318;47.674;9.052;2023-01-23T13:22:17;20.60;;;12.82;;
20320;SDS011;10318;47.674;9.052;2023-01-23T13:24:59;21.90;;;12.68;;
20320;SDS011;10318;47.674;9.052;2023-01-23T13:32:53;23.02;;;13.85;;
20320;SDS011;10318;47.674;9.052;2023-01-23T13:41:25;24.02;;;14.32;;
20320;SDS011;10318;47.674;9.052;2023-01-23T13:52:07;22.95;;;14.23;;
20320;SDS011;10318;47.674;9.052;2023-01-23T13:55:15;25.50;;;14.10;;
20320;SDS011;10318;47.674;9.052;2023-01-23T13:58:19;24.98;;;14.65;;
20320;SDS011;10318;47.674;9.052;2023-01-23T14:07:27;23.73;;;13.07;;
20320;SDS011;10318;47.674;9.052;2023-01-23T14:10:27;27.48;;;14.82;;
20320;SDS011;10318;47.674;9.052;2023-01-23T14:13:09;25.90;;;14.30;;
20320;SDS011;10318;47.674;9.052;2023-01-23T14:15:50;25.95;;;15.85;;
20320;SDS011;10318;47.674;9.052;2023-01-23T14:18:52;23.48;;;12.63;;
20320;SDS011;10318;47.674;9.052;2023-01-23T14:21:33;22.88;;;14.32;;
20320;SDS011;10318;47.674;9.052;2023-01-23T14:24:23;24.77;;;13.40;;
20320;SDS011;10318;47.674;9.052;2023-01-23T14:26:51;25.58;;;14.10;;
20320;SDS011;10318;47.674;9.052;2023-01-23T14:29:22;24.63;;;13.30;;
20320;SDS011;10318;47.674;9.052;2023-01-23T14:31:49;22.65;;;13.77;;
20320;SDS011;10318;47.674;9.052;2023-01-23T14:34:20;22.40;;;13.15;;
20320;SDS011;10318;47.674;9.052;2023-01-23T14:36:49;25.95;;;13.88;;
20320;SDS011;10318;47.674;9.052;2023-01-23T14:39:17;24.02;;;13.57;;
20320;SDS011;10318;47.674;9.052;2023-01-23T14:41:45;24.35;;;13.90;;
20320;SDS011;10318;47.674;9.052;2023-01-23T14:44:16;22.98;;;13.60;;
20320;SDS011;10318;47.674;9.052;2023-01-23T14:46:43;21.45;;;13.02;;
20320;SDS011;10318;47.674;9.052;2023-01-23T14:49:12;23.63;;;13.63;;
20320;SDS011;10318;47.674;9.052;2023-01-23T14:51:39;23.00;;;13.57;;
20320;SDS011;10318;47.674;9.052;2023-01-23T14:54:18;23.65;;;13.68;;
20320;SDS011;10318;47.674;9.052;2023-01-23T14:56:48;23.35;;;14.20;;
20320;SDS011;10318;47.674;9.052;2023-01-23T14:59:18;23.77;;;13.85;;
20320;SDS011;10318;47.674;9.052;2023-01-23T15:01:52;21.33;;;13.35;;
20320;SDS011;10318;47.674;9.052;2023-01-23T15:04:20;24.45;;;13.88;;
20320;SDS011;10318;47.674;9.052;2023-01-23T15:06:53;21.48;;;13.02;;
20320;SDS011;10318;47.674;9.052;2023-01-23T15:09:39;21.27;;;12.32;;
20320;SDS011;10318;47.674;9.052;2023-01-23T15:12:16;21.95;;;13.18;;
20320;SDS011;10318;47.674;9.052;2023-01-23T15:14:43;20.58;;;12.77;;
20320;SDS011;10318;47.674;9.052;2023-01-23T15:17:14;20.63;;;11.95;;
20320;SDS011;10318;47.674;9.052;2023-01-23T15:19:42;22.48;;;12.98;;
20320;SDS011;10318;47.674;9.052;2023-01-23T15:22:15;22.45;;;13.25;;
20320;SDS011;10318;47.674;9.052;2023-01-23T15:24:43;19.20;;;11.93;;
20320;SDS011;10318;47.674;9.052;2023-01-23T15:27:29;21.70;;;12.68;;
20320;SDS011;10318;47.674;9.052;2023-01-23T15:32:42;23.30;;;12.98;;
20320;SDS011;10318;47.674;9.052;2023-01-23T15:35:13;22.05;;;12.27;;
20320;SDS011;10318;47.674;9.052;2023-01-23T15:37:45;16.92;;;10.48;;
20320;SDS011;10318;47.674;9.052;2023-01-23T15:40:15;17.77;;;10.75;;
20320;SDS011;10318;47.674;9.052;2023-01-23T15:42:42;16.67;;;10.85;;
20320;SDS011;10318;47.674;9.052;2023-01-23T15:45:25;16.05;;;10.52;;
20320;SDS011;10318;47.674;9.052;2023-01-23T15:47:52;17.23;;;10.07;;
20320;SDS011;10318;47.674;9.052;2023-01-23T15:50:18;18.60;;;11.63;;
20320;SDS011;10318;47.674;9.052;2023-01-23T15:52:48;17.70;;;10.98;;
20320;SDS011;10318;47.674;9.052;2023-01-23T15:55:15;21.52;;;10.90;;
20320;SDS011;10318;47.674;9.052;2023-01-23T15:57:42;16.85;;;10.40;;
20320;SDS011;10318;47.674;9.052;2023-01-23T16:00:16;15.63;;;8.38;;
20320;SDS011;10318;47.674;9.052;2023-01-23T16:02:43;12.23;;;7.72;;
20320;SDS011;10318;47.674;9.052;2023-01-23T16:05:22;14.77;;;8.23;;
20320;SDS011;10318;47.674;9.052;2023-01-23T16:07:49;16.50;;;10.27;;
20320;SDS011;10318;47.674;9.052;2023-01-23T16:10:18;12.45;;;7.28;;
20320;SDS011;10318;47.674;9.052;2023-01-23T16:12:45;13.93;;;7.93;;
20320;SDS011;10318;47.674;9.052;2023-01-23T16:15:18;15.32;;;9.18;;
20320;SDS011;10318;47.674;9.052;2023-01-23T16:17:45;12.45;;;6.65;;